createdAt,value
2018-12-09T00:00:24.088Z,98600.21
2018-12-09T00:02:54.165Z,98595.02
2018-12-09T00:05:22.454Z,98602.34
2018-12-09T00:07:51.435Z,98599.77
2018-12-09T00:10:20.482Z,98601.31
2018-12-09T00:12:49.583Z,98600.42
2018-12-09T00:15:18.538Z,98602.26
2018-12-09T00:17:47.579Z,98601.13
2018-12-09T00:20:16.632Z,98591.42
2018-12-09T00:22:45.616Z,98602.73
2018-12-09T00:25:14.965Z,98606.67
2018-12-09T00:27:43.963Z,98615.20
2018-12-09T00:30:12.989Z,98612.75
2018-12-09T00:32:42.168Z,98619.19
2018-12-09T00:35:11.150Z,98616.74
2018-12-09T00:37:40.107Z,98595.52
2018-12-09T00:40:09.193Z,98622.37
2018-12-09T00:42:43.360Z,98624.03
2018-12-09T00:45:07.354Z,98630.47
2018-12-09T00:47:36.662Z,98613.37
2018-12-09T00:50:05.744Z,98599.66
2018-12-09T00:52:34.709Z,98611.36
2018-12-09T00:55:04.072Z,98597.75
2018-12-09T00:57:33.067Z,98600.57
2018-12-09T01:00:02.071Z,98597.63
2018-12-09T01:02:31.121Z,98588.09
2018-12-09T01:05:00.207Z,98587.56
2018-12-09T01:07:29.207Z,98583.17
2018-12-09T01:09:58.305Z,98588.83
2018-12-09T01:12:27.330Z,98595.03
2018-12-09T01:14:56.323Z,98593.82
2018-12-09T01:17:25.355Z,98585.38
2018-12-09T01:19:54.395Z,98584.70
2018-12-09T01:22:23.366Z,98583.34
2018-12-09T01:24:52.352Z,98569.23
2018-12-09T01:27:21.355Z,98573.08
2018-12-09T01:29:50.449Z,98565.94
2018-12-09T01:32:19.952Z,98569.94
2018-12-09T01:34:48.847Z,98564.45
2018-12-09T01:37:17.830Z,98570.24
2018-12-09T01:39:46.869Z,98571.90
2018-12-09T01:42:15.878Z,98566.24
2018-12-09T01:44:44.858Z,98581.77
2018-12-09T01:47:14.028Z,98574.28
2018-12-09T01:49:43.089Z,98574.50
2018-12-09T01:52:12.148Z,98572.97
2018-12-09T01:54:41.168Z,98570.38
2018-12-09T01:57:10.182Z,98577.16
2018-12-09T01:59:39.314Z,98571.53
2018-12-09T02:02:08.376Z,98571.74
2018-12-09T02:04:37.418Z,98565.77
2018-12-09T02:07:06.472Z,98564.56
2018-12-09T02:09:35.459Z,98558.50
2018-12-09T02:12:04.500Z,98563.37
2018-12-09T02:14:33.518Z,98568.39
2018-12-09T02:17:02.467Z,98573.51
2018-12-09T02:19:31.608Z,98573.08
2018-12-09T02:22:00.636Z,98572.66
2018-12-09T02:24:29.675Z,98573.45
2018-12-09T02:26:58.708Z,98577.97
2018-12-09T02:29:27.769Z,98576.63
2018-12-09T02:31:56.734Z,98578.34
2018-12-09T02:34:26.368Z,98580.95
2018-12-09T02:36:55.467Z,98581.58
2018-12-09T02:39:24.510Z,98577.78
2018-12-09T02:41:53.565Z,98578.72
2018-12-09T02:44:22.750Z,98585.39
2018-12-09T02:46:51.737Z,98573.45
2018-12-09T02:49:20.789Z,98565.73
2018-12-09T02:51:49.854Z,98568.27
2018-12-09T02:54:18.799Z,98566.00
2018-12-09T02:56:47.832Z,98559.50
2018-12-09T02:59:16.785Z,98555.98
2018-12-09T03:01:45.861Z,98566.67
2018-12-09T03:04:14.892Z,98566.20
2018-12-09T03:06:43.885Z,98565.97
2018-12-09T03:09:12.896Z,98570.72
2018-12-09T03:11:41.907Z,98574.06
2018-12-09T03:14:10.895Z,98578.37
2018-12-09T03:16:39.984Z,98585.56
2018-12-09T03:19:08.919Z,98571.09
2018-12-09T03:21:37.969Z,98575.58
2018-12-09T03:24:07.032Z,98567.23
2018-12-09T03:26:36.142Z,98568.00
2018-12-09T03:29:05.204Z,98565.89
2018-12-09T03:31:34.278Z,98567.51
2018-12-09T03:34:03.326Z,98559.78
2018-12-09T03:36:32.335Z,98563.11
2018-12-09T03:39:01.347Z,98566.56
2018-12-09T03:41:30.350Z,98566.99
2018-12-09T03:43:59.334Z,98576.03
2018-12-09T03:46:28.298Z,98566.71
2018-12-09T03:48:57.295Z,98569.81
2018-12-09T03:51:26.352Z,98569.38
2018-12-09T03:53:55.400Z,98577.94
2018-12-09T03:56:24.447Z,98580.08
2018-12-09T03:58:53.510Z,98582.25
2018-12-09T04:01:22.639Z,98573.95
2018-12-09T04:03:51.724Z,98575.05
2018-12-09T04:06:20.759Z,98568.39
2018-12-09T04:08:49.721Z,98566.97
2018-12-09T04:11:18.754Z,98568.27
2018-12-09T04:13:47.815Z,98568.05
2018-12-09T04:16:16.805Z,98565.81
2018-12-09T04:18:45.894Z,98569.23
2018-12-09T04:21:14.934Z,98568.23
2018-12-09T04:23:43.988Z,98571.31
2018-12-09T04:26:13.077Z,98563.58
2018-12-09T04:28:42.096Z,98562.64
2018-12-09T04:31:11.149Z,98557.45
2018-12-09T04:33:40.152Z,98559.95
2018-12-09T04:36:09.169Z,98565.01
2018-12-09T04:38:38.157Z,98558.88
2018-12-09T04:41:07.182Z,98556.41
2018-12-09T04:43:36.166Z,98556.77
2018-12-09T04:46:05.279Z,98552.11
2018-12-09T04:48:34.276Z,98553.37
2018-12-09T04:51:03.363Z,98547.91
2018-12-09T04:53:32.385Z,98548.53
2018-12-09T04:56:01.391Z,98543.75
2018-12-09T04:58:30.446Z,98547.77
2018-12-09T05:00:59.430Z,98554.24
2018-12-09T05:03:28.479Z,98565.44
2018-12-09T05:05:57.563Z,98572.55
2018-12-09T05:08:26.641Z,98568.20
2018-12-09T05:10:55.785Z,98572.88
2018-12-09T05:13:24.813Z,98568.70
2018-12-09T05:15:53.914Z,98567.47
2018-12-09T05:18:22.972Z,98566.41
2018-12-09T05:20:52.048Z,98576.95
2018-12-09T05:23:21.089Z,98570.98
2018-12-09T05:25:50.140Z,98575.43
2018-12-09T05:28:19.234Z,98577.34
2018-12-09T05:30:48.310Z,98571.56
2018-12-09T05:33:17.345Z,98569.22
2018-12-09T05:35:46.358Z,98566.29
2018-12-09T05:38:15.350Z,98567.69
2018-12-09T05:40:44.503Z,98577.64
2018-12-09T05:43:13.577Z,98576.22
2018-12-09T05:45:42.583Z,98584.09
2018-12-09T05:48:11.696Z,98590.29
2018-12-09T05:50:40.745Z,98601.95
2018-12-09T05:53:09.916Z,98595.12
2018-12-09T05:55:38.988Z,98596.33
2018-12-09T05:58:08.015Z,98589.94
2018-12-09T06:00:37.066Z,98596.03
2018-12-09T06:03:06.086Z,98598.94
2018-12-09T06:05:35.178Z,98596.06
2018-12-09T06:08:04.258Z,98602.98
2018-12-09T06:10:33.373Z,98610.52
2018-12-09T06:13:02.386Z,98611.33
2018-12-09T06:15:31.382Z,98614.80
2018-12-09T06:18:00.406Z,98610.29
2018-12-09T06:20:29.386Z,98610.05
2018-12-09T06:22:58.500Z,98609.74
2018-12-09T06:25:27.557Z,98614.20
2018-12-09T06:27:56.551Z,98608.68
2018-12-09T06:30:25.649Z,98607.91
2018-12-09T06:32:54.922Z,98606.72
2018-12-09T06:35:23.947Z,98597.94
2018-12-09T06:37:53.021Z,98599.66
2018-12-09T06:40:22.144Z,98599.40
2018-12-09T06:42:51.226Z,98600.17
2018-12-09T06:45:20.255Z,98597.64
2018-12-09T06:47:49.274Z,98592.58
2018-12-09T06:50:18.609Z,98587.41
2018-12-09T06:52:47.607Z,98590.87
2018-12-09T06:55:16.650Z,98584.45
2018-12-09T06:57:45.762Z,98590.28
2018-12-09T07:00:14.752Z,98561.64
2018-12-09T07:02:43.805Z,98592.55
2018-12-09T07:05:12.952Z,98582.70
2018-12-09T07:07:41.975Z,98581.14
2018-12-09T07:10:11.116Z,98575.65
2018-12-09T07:12:40.440Z,98568.31
2018-12-09T07:15:09.593Z,98568.30
2018-12-09T07:17:38.669Z,98573.83
2018-12-09T07:20:08.889Z,98569.46
2018-12-09T07:22:37.962Z,98577.97
2018-12-09T07:25:07.183Z,98580.33
2018-12-09T07:27:36.430Z,98576.16
2018-12-09T07:30:06.212Z,98584.83
2018-12-09T07:32:35.247Z,98582.47
2018-12-09T07:35:04.432Z,98579.12
2018-12-09T07:37:33.548Z,98576.13
2018-12-09T07:40:02.577Z,98574.82
2018-12-09T07:42:31.646Z,98572.80
2018-12-09T07:45:00.599Z,98572.12
2018-12-09T07:47:29.719Z,98562.36
2018-12-09T07:49:59.101Z,98563.93
2018-12-09T07:52:28.184Z,98559.35
2018-12-09T07:54:57.356Z,98564.06
2018-12-09T07:57:27.068Z,98555.81
2018-12-09T07:59:56.102Z,98551.02
2018-12-09T08:02:25.174Z,98553.06
2018-12-09T08:04:54.246Z,98547.59
2018-12-09T08:07:23.259Z,98547.13
2018-12-09T08:09:52.247Z,98547.43
2018-12-09T08:12:21.319Z,98543.44
2018-12-09T08:14:50.487Z,98536.77
2018-12-09T08:17:19.438Z,98540.42
2018-12-09T08:19:48.436Z,98537.42
2018-12-09T08:22:17.456Z,98537.25
2018-12-09T08:24:46.429Z,98537.75
2018-12-09T08:27:15.441Z,98529.77
2018-12-09T08:29:44.639Z,98534.09
2018-12-09T08:32:13.758Z,98532.58
2018-12-09T08:34:42.803Z,98524.09
2018-12-09T08:37:16.463Z,98517.59
2018-12-09T08:39:45.560Z,98508.72
2018-12-09T08:42:14.558Z,98504.96
2018-12-09T08:44:43.607Z,98499.97
2018-12-09T08:47:12.707Z,98501.20
2018-12-09T08:49:41.787Z,98499.45
2018-12-09T08:52:10.849Z,98502.45
2018-12-09T08:54:39.857Z,98501.36
2018-12-09T08:57:08.889Z,98504.66
2018-12-09T08:59:37.861Z,98497.02
2018-12-09T09:02:07.010Z,98485.38
2018-12-09T09:04:35.975Z,98483.30
2018-12-09T09:07:05.019Z,98479.52
2018-12-09T09:09:34.142Z,98470.02
2018-12-09T09:12:03.199Z,98472.55
2018-12-09T09:14:32.418Z,98461.97
2018-12-09T09:17:01.744Z,98451.83
2018-12-09T09:19:30.739Z,98462.73
2018-12-09T09:21:59.737Z,98454.88
2018-12-09T09:24:28.777Z,98446.77
2018-12-09T09:26:57.788Z,98445.80
2018-12-09T09:29:26.836Z,98456.86
2018-12-09T09:31:55.989Z,98449.00
2018-12-09T09:34:25.062Z,98437.41
2018-12-09T09:36:54.148Z,98441.94
2018-12-09T09:39:23.247Z,98442.20
2018-12-09T09:41:52.307Z,98435.80
2018-12-09T09:44:21.399Z,98427.06
2018-12-09T09:46:50.479Z,98433.63
2018-12-09T09:49:19.523Z,98427.55
2018-12-09T09:51:48.629Z,98422.92
2018-12-09T09:54:17.976Z,98417.03
2018-12-09T09:56:46.973Z,98409.02
2018-12-09T09:59:15.956Z,98400.00
2018-12-09T10:01:45.049Z,98405.82
2018-12-09T10:04:14.052Z,98402.33
2018-12-09T10:06:43.129Z,98395.52
2018-12-09T10:09:12.207Z,98394.78
2018-12-09T10:11:41.276Z,98394.67
2018-12-09T10:14:10.341Z,98389.59
2018-12-09T10:16:39.491Z,98395.66
2018-12-09T10:19:08.592Z,98391.25
2018-12-09T10:21:37.595Z,98385.90
2018-12-09T10:24:06.784Z,98384.47
2018-12-09T10:26:36.623Z,98381.45
2018-12-09T10:29:04.892Z,98339.39
2018-12-09T10:31:34.259Z,98380.05
2018-12-09T10:34:03.227Z,98375.50
2018-12-09T10:36:32.202Z,98367.45
2018-12-09T10:39:02.862Z,98370.02
2018-12-09T10:41:31.880Z,98352.22
2018-12-09T10:44:00.894Z,98351.80
2018-12-09T10:46:29.929Z,98339.03
2018-12-09T10:48:58.902Z,98337.20
2018-12-09T10:51:27.922Z,98336.32
2018-12-09T10:53:56.995Z,98337.23
2018-12-09T10:56:26.049Z,98330.91
2018-12-09T10:58:55.519Z,98331.75
2018-12-09T11:01:27.493Z,98325.45
2018-12-09T11:03:56.589Z,98322.52
2018-12-09T11:06:25.635Z,98314.66
2018-12-09T11:08:54.885Z,98309.77
2018-12-09T11:11:23.838Z,98306.92
2018-12-09T11:13:58.067Z,98313.48
2018-12-09T11:16:21.919Z,98316.28
2018-12-09T11:18:50.897Z,98299.95
2018-12-09T11:21:19.894Z,98305.49
2018-12-09T11:23:48.989Z,98296.23
2018-12-09T11:26:17.995Z,98298.17
2018-12-09T11:28:47.056Z,98290.52
2018-12-09T11:31:24.684Z,98286.00
2018-12-09T11:33:54.762Z,98281.34
2018-12-09T11:36:23.820Z,98289.71
2018-12-09T11:38:53.066Z,98285.00
2018-12-09T11:41:22.206Z,98291.17
2018-12-09T11:43:51.179Z,98288.03
2018-12-09T11:46:20.552Z,98296.64
2018-12-09T11:48:49.573Z,98297.74
2018-12-09T11:51:18.560Z,98282.97
2018-12-09T11:53:47.619Z,98296.45
2018-12-09T11:56:16.627Z,98306.65
2018-12-09T11:58:45.654Z,98307.38
2018-12-09T12:01:14.743Z,98301.36
2018-12-09T12:03:43.801Z,98292.23
2018-12-09T12:06:12.903Z,98299.89
2018-12-09T12:08:41.982Z,98290.33
2018-12-09T12:11:10.994Z,98286.36
2018-12-09T12:13:40.081Z,98294.02
2018-12-09T12:16:09.183Z,98291.92
2018-12-09T12:18:38.211Z,98284.47
2018-12-09T12:21:07.199Z,98285.30
2018-12-09T12:23:36.230Z,98280.98
2018-12-09T12:26:05.463Z,98267.53
2018-12-09T12:28:34.579Z,98265.19
2018-12-09T12:31:03.676Z,98266.95
2018-12-09T12:33:32.654Z,98262.11
2018-12-09T12:36:01.668Z,98261.61
2018-12-09T12:38:30.761Z,98267.34
2018-12-09T12:40:59.734Z,98265.96
2018-12-09T12:43:28.840Z,98260.00
2018-12-09T12:45:58.056Z,98267.52
2018-12-09T12:48:27.144Z,98259.23
2018-12-09T12:50:56.225Z,98250.19
2018-12-09T12:53:25.351Z,98249.58
2018-12-09T12:55:54.350Z,98238.02
2018-12-09T12:58:23.488Z,98245.12
2018-12-09T13:00:52.629Z,98248.20
2018-12-09T13:03:21.767Z,98234.49
2018-12-09T13:05:50.965Z,98240.98
2018-12-09T13:08:20.072Z,98233.94
2018-12-09T13:10:49.065Z,98230.02
2018-12-09T13:13:18.092Z,98226.55
2018-12-09T13:15:47.116Z,98225.58
2018-12-09T13:18:16.145Z,98226.59
2018-12-09T13:20:45.225Z,98228.66
2018-12-09T13:23:14.339Z,98223.91
2018-12-09T13:25:43.458Z,98223.14
2018-12-09T13:28:12.604Z,98223.52
2018-12-09T13:30:41.934Z,98216.14
2018-12-09T13:33:11.048Z,98229.23
2018-12-09T13:35:40.039Z,98219.47
2018-12-09T13:38:09.081Z,98216.83
2018-12-09T13:40:38.143Z,98223.69
2018-12-09T13:43:07.152Z,98225.22
2018-12-09T13:45:36.195Z,98224.53
2018-12-09T13:48:05.780Z,98221.27
2018-12-09T13:50:34.854Z,98221.56
2018-12-09T13:53:03.864Z,98224.77
2018-12-09T13:55:32.910Z,98217.91
2018-12-09T13:58:01.951Z,98218.20
2018-12-09T14:00:31.495Z,98213.33
2018-12-09T14:03:00.509Z,98209.59
2018-12-09T14:05:29.544Z,98215.73
2018-12-09T14:07:58.622Z,98214.70
2018-12-09T14:10:27.704Z,98210.26
2018-12-09T14:12:56.723Z,98207.12
2018-12-09T14:15:25.802Z,98201.14
2018-12-09T14:17:55.334Z,98204.78
2018-12-09T14:20:24.374Z,98196.93
2018-12-09T14:22:53.436Z,98205.81
2018-12-09T14:25:22.432Z,98206.41
2018-12-09T14:27:51.441Z,98204.59
2018-12-09T14:30:20.942Z,98200.55
2018-12-09T14:32:50.164Z,98200.62
2018-12-09T14:35:19.265Z,98199.62
2018-12-09T14:37:48.334Z,98196.27
2018-12-09T14:40:18.098Z,98201.16
2018-12-09T14:42:47.125Z,98196.50
2018-12-09T14:45:16.184Z,98205.92
2018-12-09T14:47:45.272Z,98193.36
2018-12-09T14:50:14.333Z,98195.88
2018-12-09T14:52:43.379Z,98193.37
2018-12-09T14:55:12.439Z,98197.84
2018-12-09T14:57:41.436Z,98200.20
2018-12-09T15:00:11.519Z,98197.59
2018-12-09T15:02:40.509Z,98199.45
2018-12-09T15:05:09.582Z,98199.08
2018-12-09T15:07:38.585Z,98202.67
2018-12-09T15:10:08.983Z,98204.28
2018-12-09T15:12:36.960Z,98206.44
2018-12-09T15:15:06.299Z,98211.48
2018-12-09T15:17:35.319Z,98203.25
2018-12-09T15:20:04.611Z,98204.22
2018-12-09T15:22:33.675Z,98202.23
2018-12-09T15:25:02.709Z,98198.58
2018-12-09T15:27:31.804Z,98203.13
2018-12-09T15:30:00.854Z,98205.15
2018-12-09T15:32:29.878Z,98211.03
2018-12-09T15:34:58.984Z,98207.03
2018-12-09T15:37:28.076Z,98204.66
2018-12-09T15:39:57.068Z,98203.13
2018-12-09T15:42:26.086Z,98201.86
2018-12-09T15:44:55.118Z,98202.56
2018-12-09T15:47:24.156Z,98203.44
2018-12-09T15:49:53.180Z,98194.98
2018-12-09T15:52:22.203Z,98200.30
2018-12-09T15:54:51.207Z,98200.63
2018-12-09T15:57:20.175Z,98196.40
2018-12-09T15:59:49.204Z,98203.17
2018-12-09T16:02:18.276Z,98191.09
2018-12-09T16:04:47.323Z,98191.74
2018-12-09T16:07:16.341Z,98186.05
2018-12-09T16:09:45.371Z,98187.69
2018-12-09T16:12:14.407Z,98192.05
2018-12-09T16:14:43.620Z,98185.27
2018-12-09T16:17:12.617Z,98183.16
2018-12-09T16:19:42.303Z,98180.83
2018-12-09T16:22:13.840Z,98178.19
2018-12-09T16:24:43.003Z,98184.02
2018-12-09T16:27:12.095Z,98180.48
2018-12-09T16:29:41.147Z,98188.25
2018-12-09T16:32:10.118Z,98186.91
2018-12-09T16:34:39.152Z,98194.50
2018-12-09T16:37:08.617Z,98194.95
2018-12-09T16:39:37.584Z,98201.66
2018-12-09T16:42:06.611Z,98196.92
2018-12-09T16:44:35.643Z,98197.14
2018-12-09T16:47:04.768Z,98197.10
2018-12-09T16:49:33.734Z,98203.30
2018-12-09T16:52:02.812Z,98192.48
2018-12-09T16:54:32.002Z,98203.44
2018-12-09T16:57:01.102Z,98202.06
2018-12-09T16:59:30.746Z,98202.60
2018-12-09T17:02:01.531Z,98203.66
2018-12-09T17:04:31.543Z,98196.56
2018-12-09T17:07:00.840Z,98197.02
2018-12-09T17:09:31.147Z,98210.54
2018-12-09T17:12:00.429Z,98214.02
2018-12-09T17:14:32.123Z,98213.05
2018-12-09T17:17:00.700Z,98213.70
2018-12-09T17:19:30.007Z,98219.45
2018-12-09T17:21:59.137Z,98227.32
2018-12-09T17:24:28.640Z,98222.85
2018-12-09T17:26:57.873Z,98218.16
2018-12-09T17:29:28.438Z,98219.02
2018-12-09T17:31:58.504Z,98215.08
2018-12-09T17:34:28.310Z,98221.48
2018-12-09T17:36:58.433Z,98217.83
2018-12-09T17:39:28.432Z,98216.86
2018-12-09T17:41:58.423Z,98214.60
2018-12-09T17:44:28.167Z,98202.34
2018-12-09T17:47:00.062Z,98201.44
2018-12-09T17:49:30.172Z,98196.16
2018-12-09T17:52:00.271Z,98191.95
2018-12-09T17:54:30.287Z,98187.75
2018-12-09T17:57:00.559Z,98178.28
2018-12-09T17:59:32.749Z,98174.13
2018-12-09T18:02:02.749Z,98176.95
2018-12-09T18:04:33.736Z,98182.60
2018-12-09T18:07:04.211Z,98186.45
2018-12-09T18:09:33.813Z,98181.48
2018-12-09T18:12:04.307Z,98182.55
2018-12-09T18:14:34.466Z,98180.59
2018-12-09T18:17:03.587Z,98182.91
2018-12-09T18:19:34.842Z,98185.20
2018-12-09T18:22:03.968Z,98191.84
2018-12-09T18:24:34.086Z,98189.82
2018-12-09T18:27:03.729Z,98190.64
2018-12-09T18:29:33.112Z,98195.92
2018-12-09T18:32:04.664Z,98207.66
2018-12-09T18:34:41.091Z,98201.45
2018-12-09T18:37:11.538Z,98199.49
2018-12-09T18:39:40.898Z,98205.07
2018-12-09T18:42:10.139Z,98209.23
2018-12-09T18:44:40.675Z,98196.76
2018-12-09T18:47:10.254Z,98204.33
2018-12-09T18:49:40.254Z,98212.14
2018-12-09T18:52:11.707Z,98206.47
2018-12-09T18:54:44.264Z,98214.36
2018-12-09T18:57:16.593Z,98218.02
2018-12-09T18:59:47.201Z,98221.96
2018-12-09T19:02:16.478Z,98225.21
2018-12-09T19:04:45.571Z,98223.34
2018-12-09T19:07:15.647Z,98223.70
2018-12-09T19:09:45.307Z,98229.21
2018-12-09T19:12:14.748Z,98229.97
2018-12-09T19:14:44.691Z,98227.71
2018-12-09T19:17:14.079Z,98233.34
2018-12-09T19:19:43.291Z,98225.42
2018-12-09T19:22:12.484Z,98223.29
2018-12-09T19:24:41.747Z,98219.16
2018-12-09T19:27:11.109Z,98226.86
2018-12-09T19:29:40.484Z,98226.45
2018-12-09T19:32:09.862Z,98224.23
2018-12-09T19:34:38.915Z,98228.55
2018-12-09T19:37:08.484Z,98218.91
2018-12-09T19:39:37.837Z,98225.89
2018-12-09T19:42:07.033Z,98224.55
2018-12-09T19:44:36.582Z,98216.09
2018-12-09T19:47:07.482Z,98210.41
2018-12-09T19:49:36.533Z,98202.07
2018-12-09T19:52:06.185Z,98204.41
2018-12-09T19:54:35.607Z,98201.71
2018-12-09T19:57:04.684Z,98207.54
2018-12-09T19:59:33.712Z,98205.00
2018-12-09T20:02:02.934Z,98212.52
2018-12-09T20:04:31.947Z,98212.34
2018-12-09T20:07:01.016Z,98209.53
2018-12-09T20:09:30.139Z,98215.67
2018-12-09T20:11:59.196Z,98214.49
2018-12-09T20:14:31.710Z,98221.27
2018-12-09T20:17:00.888Z,98215.66
2018-12-09T20:19:30.086Z,98220.61
2018-12-09T20:21:59.227Z,98217.83
2018-12-09T20:24:28.520Z,98216.98
2018-12-09T20:26:57.741Z,98100.24
2018-12-09T20:29:26.956Z,98223.05
2018-12-09T20:31:56.028Z,98216.70
2018-12-09T20:34:25.071Z,98219.98
2018-12-09T20:36:54.120Z,98213.27
2018-12-09T20:39:23.158Z,98219.77
2018-12-09T20:41:52.236Z,98228.78
2018-12-09T20:44:21.478Z,98223.13
2018-12-09T20:46:50.650Z,98218.03
2018-12-09T20:49:19.719Z,98216.39
2018-12-09T20:51:48.882Z,98215.89
2018-12-09T20:54:17.933Z,98213.38
2018-12-09T20:56:46.969Z,98214.89
2018-12-09T20:59:16.079Z,98213.12
2018-12-09T21:01:46.999Z,98215.44
2018-12-09T21:04:16.210Z,98216.43
2018-12-09T21:06:45.351Z,98222.58
2018-12-09T21:09:14.471Z,98207.25
2018-12-09T21:11:43.520Z,98213.05
2018-12-09T21:14:12.660Z,98208.06
2018-12-09T21:16:43.247Z,98215.56
2018-12-09T21:19:12.505Z,98204.31
2018-12-09T21:21:45.070Z,98203.59
2018-12-09T21:24:25.765Z,98201.94
2018-12-09T21:26:54.907Z,98204.92
2018-12-09T21:29:28.134Z,98207.45
2018-12-09T21:32:01.021Z,98200.66
2018-12-09T21:34:36.045Z,98190.46
2018-12-09T21:37:11.072Z,98189.25
2018-12-09T21:39:40.708Z,98183.22
2018-12-09T21:42:09.781Z,98186.25
2018-12-09T21:44:39.027Z,98182.77
2018-12-09T21:47:08.312Z,98172.48
2018-12-09T21:49:37.344Z,98168.33
2018-12-09T21:52:06.416Z,98166.83
2018-12-09T21:54:35.485Z,98160.52
2018-12-09T21:57:04.533Z,98169.14
2018-12-09T21:59:33.556Z,98167.97
2018-12-09T22:02:02.867Z,98173.91
2018-12-09T22:04:32.029Z,98176.30
2018-12-09T22:07:01.311Z,98169.80
2018-12-09T22:09:30.317Z,98182.48
2018-12-09T22:11:59.411Z,98182.09
2018-12-09T22:14:29.382Z,98182.58
2018-12-09T22:16:58.400Z,98182.27
2018-12-09T22:19:27.439Z,98176.43
2018-12-09T22:21:56.528Z,98181.78
2018-12-09T22:24:25.500Z,98175.12
2018-12-09T22:26:54.570Z,98177.27
2018-12-09T22:29:23.590Z,98169.80
2018-12-09T22:31:52.556Z,98171.08
2018-12-09T22:34:21.764Z,98170.42
2018-12-09T22:36:50.820Z,98161.80
2018-12-09T22:39:19.815Z,98164.13
2018-12-09T22:41:48.835Z,98167.32
2018-12-09T22:44:17.909Z,98167.45
2018-12-09T22:46:46.976Z,98163.30
2018-12-09T22:49:15.986Z,98157.16
2018-12-09T22:51:45.045Z,98158.67
2018-12-09T22:54:14.049Z,98159.13
2018-12-09T22:56:43.126Z,98151.23
2018-12-09T22:59:12.324Z,98148.67
2018-12-09T23:01:45.384Z,98144.77
2018-12-09T23:04:14.488Z,98151.91
2018-12-09T23:06:43.539Z,98156.37
2018-12-09T23:09:12.516Z,98147.70
2018-12-09T23:11:41.534Z,98151.50
2018-12-09T23:14:10.588Z,98149.18
2018-12-09T23:16:39.591Z,98142.28
2018-12-09T23:19:08.884Z,98139.70
2018-12-09T23:21:37.891Z,98136.28
2018-12-09T23:24:06.940Z,98133.23
2018-12-09T23:26:35.967Z,98128.05
2018-12-09T23:29:04.975Z,98132.33
2018-12-09T23:31:33.945Z,98129.38
2018-12-09T23:34:03.023Z,98130.38
2018-12-09T23:36:32.062Z,98123.39
2018-12-09T23:39:01.134Z,98123.38
2018-12-09T23:41:30.222Z,98132.36
2018-12-09T23:43:59.218Z,98133.04
2018-12-09T23:46:28.211Z,98134.37
2018-12-09T23:48:57.267Z,98133.00
2018-12-09T23:51:26.238Z,98121.87
2018-12-09T23:53:55.319Z,98126.02
2018-12-09T23:56:24.772Z,98120.03
2018-12-09T23:58:53.767Z,98115.20
